Terminal Aerodrome Forecast
Issued by NWS

Home | Current Version | Previous Version | Text Only | Print | Product List | Glossary On
Versions: 1 2 3 4 5 6 7 8 9 10 11 12 13 14 15
813
FTUS46 KEKA 080540
TAFCEC
TAF
KCEC 080540Z 0806/0906 11007KT P6SM VCSH BKN050 OVC080
      TEMPO 0810/0812 12011KT 6SM -RA SCT030 OVC050
     FM081200 15012G20KT P6SM -RA SCT020 OVC050
     FM081700 16015G25KT 4SM -RA BR FEW007 SCT015 OVC025
     FM082100 18017G25KT 3SM RA BR BKN007 OVC015
     FM090000 18012G18KT 5SM -RA BR OVC015=

USA.gov is the U.S. government's official web portal to all federal, state and local government web resources and services.